Time;durP1;ratioP1;P1;durP2;ratioP2;P2;SDS_P1;SDS_P2;PMS_P1;PMS_P2;Temp;Humidity;BMP_temperature;BMP_pressure;BME280_temperature;BME280_humidity;BME280_pressure;Samples;Min_cycle;Max_cycle;Signal;HPM_P1;HPM_P2
2022/04/08 00:01:49;;;;;;;5.43;1.20;;;20.60;99.90;;;;;;5070959;28;20080;-79
2022/04/08 00:04:16;;;;;;;7.07;1.30;;;20.70;99.90;;;;;;5070584;28;20397;-79
2022/04/08 00:06:43;;;;;;;7.55;1.60;;;21.00;99.90;;;;;;5070656;28;20495;-78
2022/04/08 00:09:11;;;;;;;8.43;1.42;;;21.20;99.90;;;;;;5070770;28;20028;-78
2022/04/08 00:11:38;;;;;;;5.22;1.20;;;21.60;99.90;;;;;;5070774;28;20036;-78
2022/04/08 00:14:05;;;;;;;8.20;1.38;;;22.00;99.90;;;;;;5074423;28;20052;-78
2022/04/08 00:16:33;;;;;;;6.22;1.40;;;22.10;99.90;;;;;;5074830;28;20547;-78
2022/04/08 00:19:00;;;;;;;8.13;1.30;;;22.10;99.90;;;;;;5074639;28;20025;-78
2022/04/08 00:21:28;;;;;;;11.75;2.17;;;21.80;99.90;;;;;;5074610;28;20480;-78
2022/04/08 00:23:56;;;;;;;11.68;1.58;;;22.10;99.90;;;;;;5075891;28;20025;-77
2022/04/08 00:26:23;;;;;;;7.03;1.50;;;22.40;99.90;;;;;;5074452;28;20055;-77
2022/04/08 00:28:50;;;;;;;12.15;1.98;;;22.40;99.90;;;;;;5074321;28;20025;-76
2022/04/08 00:31:18;;;;;;;12.43;2.08;;;22.40;99.90;;;;;;5074265;28;20120;-77
2022/04/08 00:33:45;;;;;;;10.38;1.40;;;22.30;99.90;;;;;;5074212;28;20556;-76
2022/04/08 00:36:12;;;;;;;7.90;1.25;;;22.60;99.90;;;;;;5074154;28;20052;-77
2022/04/08 00:38:40;;;;;;;5.72;0.95;;;22.70;99.90;;;;;;5075504;28;20362;-77
2022/04/08 00:41:07;;;;;;;6.10;0.98;;;22.20;99.90;;;;;;5074138;28;20025;-77
2022/04/08 00:43:39;;;;;;;7.57;1.23;;;22.00;99.90;;;;;;5075435;28;20481;-78
2022/04/08 00:46:12;;;;;;;5.93;1.10;;;22.10;99.90;;;;;;5073952;28;20077;-78
2022/04/08 00:48:39;;;;;;;7.00;1.10;;;22.30;99.90;;;;;;5074023;28;20070;-78
2022/04/08 00:51:08;;;;;;;4.13;0.88;;;22.70;99.90;;;;;;5075279;28;20017;-78
2022/04/08 00:53:40;;;;;;;2.45;0.90;;;22.60;99.90;;;;;;5075050;28;20020;-77
2022/04/08 00:56:07;;;;;;;6.45;0.63;;;22.30;99.90;;;;;;5075049;28;20031;-78
2022/04/08 00:58:37;;;;;;;5.35;0.80;;;22.10;99.90;;;;;;5075090;28;20017;-78
2022/04/08 01:01:04;;;;;;;10.25;0.98;;;22.30;99.90;;;;;;5074986;28;20036;-78
2022/04/08 01:03:31;;;;;;;6.80;0.77;;;22.60;99.90;;;;;;5074679;28;20017;-78
2022/04/08 01:05:59;;;;;;;4.55;0.88;;;22.80;99.90;;;;;;5073695;28;20119;-78
2022/04/08 01:08:27;;;;;;;7.53;0.80;;;22.80;99.90;;;;;;5073586;28;20453;-77
2022/04/08 01:10:55;;;;;;;3.95;0.60;;;22.90;99.90;;;;;;5074893;28;20485;-78
2022/04/08 01:13:23;;;;;;;5.70;0.98;;;22.80;99.90;;;;;;5073643;28;20060;-78
2022/04/08 01:15:50;;;;;;;4.57;0.85;;;22.80;99.90;;;;;;5073308;28;20032;-78
2022/04/08 01:18:18;;;;;;;4.53;0.90;;;23.10;99.90;;;;;;5074870;28;20027;-78
2022/04/08 01:20:45;;;;;;;4.53;0.63;;;23.30;99.90;;;;;;5073370;28;20031;-78
2022/04/08 01:23:15;;;;;;;5.43;0.82;;;23.10;99.90;;;;;;5073408;28;20032;-77
2022/04/08 01:25:42;;;;;;;5.63;0.90;;;22.90;99.90;;;;;;5072254;28;20032;-78
2022/04/08 01:28:10;;;;;;;6.63;0.98;;;23.20;99.90;;;;;;5073330;28;20077;-78
2022/04/08 01:30:37;;;;;;;5.65;0.80;;;23.30;99.90;;;;;;5073247;28;20183;-78
2022/04/08 01:33:04;;;;;;;5.00;1.02;;;23.10;99.90;;;;;;5074577;28;20444;-78
2022/04/08 01:35:32;;;;;;;11.80;1.50;;;22.80;99.90;;;;;;5074451;28;20446;-79
2022/04/08 01:37:59;;;;;;;6.35;0.90;;;22.80;99.90;;;;;;5074465;28;20044;-78
2022/04/08 01:40:27;;;;;;;4.85;1.15;;;22.90;99.90;;;;;;5073131;28;20077;-79
2022/04/08 01:42:54;;;;;;;8.20;1.00;;;22.90;99.90;;;;;;5074808;28;20020;-80
2022/04/08 01:45:22;;;;;;;5.63;1.30;;;23.00;99.90;;;;;;5075020;28;20099;-79
2022/04/08 01:47:49;;;;;;;5.38;1.20;;;23.40;99.90;;;;;;5057372;28;20096;-80
2022/04/08 01:50:19;;;;;;;4.97;0.82;;;23.50;99.90;;;;;;5074240;28;20032;-79
2022/04/08 01:52:47;;;;;;;3.83;0.67;;;23.50;99.90;;;;;;5074383;28;20484;-79
2022/04/08 01:55:15;;;;;;;4.43;0.88;;;23.50;99.90;;;;;;5072808;28;20186;-79
2022/04/08 01:57:43;;;;;;;5.65;1.38;;;23.30;99.90;;;;;;5072819;28;20389;-80
2022/04/08 02:00:12;;;;;;;5.97;0.82;;;23.30;99.90;;;;;;5074133;28;20021;-80
2022/04/08 02:02:40;;;;;;;5.97;0.75;;;23.30;99.90;;;;;;5073091;28;20043;-80
2022/04/08 02:05:08;;;;;;;6.45;0.93;;;23.40;99.90;;;;;;5073737;28;20072;-80
2022/04/08 02:07:35;;;;;;;4.88;0.82;;;23.80;99.90;;;;;;5072676;28;20032;-80
2022/04/08 02:10:04;;;;;;;6.63;1.33;;;23.70;99.90;;;;;;5073785;28;20027;-80
2022/04/08 02:12:32;;;;;;;5.38;0.63;;;23.30;99.90;;;;;;5072445;28;20034;-80
2022/04/08 02:14:59;;;;;;;5.85;1.10;;;23.30;99.90;;;;;;5073184;28;20052;-78
2022/04/08 02:17:28;;;;;;;3.17;0.50;;;23.50;99.90;;;;;;5072639;28;20028;-78
2022/04/08 02:19:56;;;;;;;6.57;1.20;;;23.90;99.90;;;;;;5073927;28;20031;-78
2022/04/08 02:22:25;;;;;;;4.65;0.73;;;23.70;99.90;;;;;;5073693;28;20055;-77
2022/04/08 02:24:52;;;;;;;5.85;0.95;;;23.70;99.90;;;;;;5073699;28;20103;-78
2022/04/08 02:27:23;;;;;;;7.40;0.95;;;23.70;99.90;;;;;;5072299;28;20450;-78
2022/04/08 02:29:53;;;;;;;6.18;0.77;;;23.80;99.90;;;;;;5072167;28;20020;-78
2022/04/08 02:32:20;;;;;;;7.20;0.90;;;24.00;99.90;;;;;;5073375;28;20032;-78
2022/04/08 02:34:47;;;;;;;5.93;0.93;;;24.00;99.90;;;;;;5072034;28;20021;-78
2022/04/08 02:37:15;;;;;;;5.70;0.93;;;23.90;99.90;;;;;;5073183;28;20158;-77
2022/04/08 02:39:42;;;;;;;8.98;1.27;;;23.30;99.90;;;;;;5073236;28;20057;-78
2022/04/08 02:42:10;;;;;;;5.43;0.90;;;22.90;99.90;;;;;;5071753;28;20499;-77
2022/04/08 02:44:37;;;;;;;5.05;0.88;;;22.50;99.90;;;;;;5073090;28;20077;-78
2022/04/08 02:47:05;;;;;;;3.60;1.08;;;22.00;99.90;;;;;;5073110;28;20393;-78
2022/04/08 02:49:32;;;;;;;5.53;1.02;;;22.00;99.90;;;;;;5071842;28;20020;-78
2022/04/08 02:51:59;;;;;;;3.33;0.60;;;22.20;99.90;;;;;;5071573;28;20393;-78
2022/04/08 02:54:27;;;;;;;7.82;1.20;;;22.40;99.90;;;;;;5072976;28;20025;-78
2022/04/08 02:56:54;;;;;;;5.03;1.17;;;22.90;99.90;;;;;;5072855;28;20032;-78
2022/04/08 02:59:21;;;;;;;8.02;1.20;;;23.40;99.90;;;;;;5071672;28;20073;-78
2022/04/08 03:01:48;;;;;;;5.28;1.00;;;23.60;99.90;;;;;;5071497;28;20101;-78
2022/04/08 03:04:16;;;;;;;4.85;0.80;;;23.60;99.90;;;;;;5072630;28;20127;-78
2022/04/08 03:06:43;;;;;;;6.03;0.98;;;23.70;99.90;;;;;;5072857;28;20021;-78
2022/04/08 03:09:10;;;;;;;4.07;1.10;;;23.40;99.90;;;;;;5071392;28;20028;-77
2022/04/08 03:11:38;;;;;;;4.90;1.00;;;22.70;99.90;;;;;;5072714;28;20033;-77
2022/04/08 03:14:05;;;;;;;4.32;1.10;;;22.50;99.90;;;;;;5072783;28;20020;-78
2022/04/08 03:16:33;;;;;;;5.25;1.00;;;23.00;99.90;;;;;;5071235;28;20028;-78
2022/04/08 03:19:00;;;;;;;5.45;1.27;;;23.10;99.90;;;;;;5071322;28;20112;-78
2022/04/08 03:21:30;;;;;;;6.32;1.00;;;23.00;99.90;;;;;;5071219;28;20075;-78
2022/04/08 03:23:58;;;;;;;6.05;1.20;;;22.80;99.90;;;;;;5072555;28;20013;-78
2022/04/08 03:26:26;;;;;;;9.10;1.50;;;22.60;99.90;;;;;;5071249;28;20078;-78
2022/04/08 03:28:53;;;;;;;7.15;1.05;;;22.70;99.90;;;;;;5072544;28;20021;-78
2022/04/08 03:31:20;;;;;;;7.35;1.00;;;22.70;99.90;;;;;;5071411;28;20043;-78
2022/04/08 03:33:48;;;;;;;5.15;0.90;;;23.00;99.90;;;;;;5072324;28;20025;-79
2022/04/08 03:36:15;;;;;;;4.93;0.90;;;23.40;99.90;;;;;;5071051;28;20036;-78
2022/04/08 03:38:42;;;;;;;6.13;0.80;;;23.30;99.90;;;;;;5070884;28;20496;-79
2022/04/08 03:41:10;;;;;;;5.88;0.80;;;23.10;99.90;;;;;;5071088;28;20020;-79
2022/04/08 03:43:37;;;;;;;3.67;0.60;;;23.10;99.90;;;;;;5071061;28;20020;-79
2022/04/08 03:46:04;;;;;;;2.78;0.60;;;23.20;99.90;;;;;;5071118;28;20025;-79
2022/04/08 03:48:32;;;;;;;6.63;0.70;;;23.20;99.90;;;;;;5070492;28;20029;-78
2022/04/08 03:50:59;;;;;;;5.57;1.13;;;23.00;99.90;;;;;;5071076;28;20025;-79
2022/04/08 03:53:26;;;;;;;5.78;0.68;;;22.90;99.90;;;;;;5070764;28;20052;-79
2022/04/08 03:55:53;;;;;;;4.47;0.52;;;22.90;99.90;;;;;;5072177;28;20033;-78
2022/04/08 03:58:21;;;;;;;5.05;0.68;;;22.80;99.90;;;;;;5070756;28;20032;-79
2022/04/08 04:00:48;;;;;;;5.07;0.73;;;23.00;99.90;;;;;;5072248;28;20013;-79
2022/04/08 04:03:15;;;;;;;5.43;1.15;;;22.90;99.90;;;;;;5070784;28;20025;-79
2022/04/08 04:05:44;;;;;;;7.53;1.13;;;22.80;99.90;;;;;;5070673;28;20044;-78
2022/04/08 04:08:20;;;;;;;5.88;1.05;;;22.60;99.90;;;;;;5072084;28;20036;-78
2022/04/08 04:10:48;;;;;;;9.15;1.23;;;22.60;99.90;;;;;;5070918;28;20486;-78
2022/04/08 04:13:16;;;;;;;5.05;1.10;;;22.60;99.90;;;;;;5071965;28;20021;-78
2022/04/08 04:15:44;;;;;;;7.65;1.15;;;22.60;99.90;;;;;;5054142;28;20044;-78
2022/04/08 04:18:11;;;;;;;7.05;1.25;;;22.50;99.90;;;;;;5070682;28;20441;-78
2022/04/08 04:20:38;;;;;;;5.78;0.98;;;22.70;99.90;;;;;;5070686;28;20108;-79
2022/04/08 04:23:06;;;;;;;6.90;1.02;;;22.70;99.90;;;;;;5070755;28;20071;-79
2022/04/08 04:25:33;;;;;;;5.53;1.27;;;22.60;99.90;;;;;;5071842;28;20017;-81
2022/04/08 04:28:01;;;;;;;9.80;1.17;;;22.30;99.90;;;;;;5071936;28;20473;-78
2022/04/08 04:30:28;;;;;;;5.63;1.10;;;22.40;99.90;;;;;;5071734;28;20520;-78
2022/04/08 04:32:56;;;;;;;6.03;1.30;;;22.10;99.90;;;;;;5071869;28;20035;-78
2022/04/08 04:35:24;;;;;;;6.78;1.35;;;22.00;99.90;;;;;;5071625;28;20024;-75
2022/04/08 04:37:51;;;;;;;6.78;0.95;;;21.90;99.90;;;;;;5070379;28;20024;-79
2022/04/08 04:40:20;;;;;;;6.88;1.60;;;21.90;99.90;;;;;;5071733;28;20402;-79
2022/04/08 04:42:47;;;;;;;8.30;1.33;;;22.10;99.90;;;;;;5071743;28;20019;-78
2022/04/08 04:45:14;;;;;;;10.27;1.10;;;22.00;99.90;;;;;;5071546;28;20040;-77
2022/04/08 04:47:42;;;;;;;9.93;1.25;;;21.80;99.90;;;;;;5070327;28;20025;-77
2022/04/08 04:50:10;;;;;;;4.95;0.75;;;21.70;99.90;;;;;;5071651;28;20081;-76
2022/04/08 04:52:38;;;;;;;5.55;0.95;;;21.50;99.90;;;;;;5070212;28;20087;-77
2022/04/08 04:55:06;;;;;;;2.67;0.55;;;21.20;99.90;;;;;;5071501;28;20392;-75
2022/04/08 04:57:34;;;;;;;5.03;1.02;;;20.90;99.90;;;;;;5070157;28;20124;-77
2022/04/08 05:00:03;;;;;;;3.40;0.70;;;20.70;99.90;;;;;;5072061;28;20017;-77
2022/04/08 05:02:31;;;;;;;5.00;0.60;;;20.70;99.90;;;;;;5073888;28;20029;-78
2022/04/08 05:04:58;;;;;;;5.78;0.60;;;20.60;99.90;;;;;;5073379;28;20041;-77
2022/04/08 05:07:25;;;;;;;5.32;0.70;;;20.80;99.90;;;;;;5075012;28;20477;-77
2022/04/08 05:09:53;;;;;;;4.30;0.90;;;20.80;99.90;;;;;;5074959;28;20020;-77
2022/04/08 05:12:20;;;;;;;5.38;1.20;;;20.80;99.90;;;;;;5073554;28;20031;-77
2022/04/08 05:14:47;;;;;;;4.90;0.73;;;20.90;99.90;;;;;;5074862;28;20028;-77
2022/04/08 05:17:15;;;;;;;4.68;1.30;;;21.00;99.90;;;;;;5074783;28;20412;-77
2022/04/08 05:19:42;;;;;;;6.63;0.95;;;21.00;99.90;;;;;;5074754;28;20020;-76
2022/04/08 05:22:09;;;;;;;4.97;0.90;;;21.10;99.90;;;;;;5073366;28;20028;-77
2022/04/08 05:24:37;;;;;;;5.03;1.00;;;21.30;99.90;;;;;;5074638;28;20025;-77
2022/04/08 05:27:06;;;;;;;6.25;1.40;;;21.40;99.90;;;;;;5073211;28;20035;-77
2022/04/08 05:29:34;;;;;;;6.38;1.10;;;21.50;99.90;;;;;;5073349;28;20025;-78
2022/04/08 05:32:01;;;;;;;4.97;0.88;;;21.70;99.90;;;;;;5074446;28;20477;-77
2022/04/08 05:34:28;;;;;;;6.88;1.48;;;21.60;99.90;;;;;;5073210;28;20396;-78
2022/04/08 05:36:56;;;;;;;6.28;0.88;;;21.90;99.90;;;;;;5074273;28;20020;-77
2022/04/08 05:39:23;;;;;;;6.97;1.40;;;22.00;99.90;;;;;;5073217;28;20430;-77
2022/04/08 05:41:50;;;;;;;4.90;0.90;;;21.90;99.90;;;;;;5074423;28;20024;-78
2022/04/08 05:44:18;;;;;;;7.22;1.20;;;21.60;99.90;;;;;;5074537;28;20020;-78
2022/04/08 05:46:45;;;;;;;5.68;0.77;;;21.40;99.90;;;;;;5072926;28;20119;-79
2022/04/08 05:49:12;;;;;;;6.45;1.20;;;21.40;99.90;;;;;;5074324;28;20095;-74
2022/04/08 05:51:40;;;;;;;5.40;1.25;;;21.40;99.90;;;;;;5072790;28;20035;-77
2022/04/08 05:54:07;;;;;;;5.47;0.90;;;21.30;99.90;;;;;;5072905;28;20037;-77
2022/04/08 05:56:34;;;;;;;7.18;1.13;;;21.40;99.90;;;;;;5073909;28;20031;-76
2022/04/08 05:59:02;;;;;;;5.35;1.20;;;21.40;99.90;;;;;;5074021;28;20385;-77
2022/04/08 06:01:29;;;;;;;6.78;1.52;;;21.50;99.90;;;;;;5073969;28;20492;-77
2022/04/08 06:03:57;;;;;;;6.97;0.90;;;21.30;99.90;;;;;;5072288;28;20072;-76
2022/04/08 06:06:24;;;;;;;5.68;0.93;;;21.10;99.90;;;;;;5072483;28;20056;-76
2022/04/08 06:08:51;;;;;;;5.47;0.98;;;21.00;99.90;;;;;;5072423;28;20032;-77
2022/04/08 06:11:19;;;;;;;6.20;0.98;;;20.90;99.90;;;;;;5073265;28;20024;-76
2022/04/08 06:13:46;;;;;;;6.70;0.98;;;20.80;99.90;;;;;;5073822;28;20035;-76
2022/04/08 06:16:13;;;;;;;5.82;1.33;;;20.80;99.90;;;;;;5073538;28;20102;-76
2022/04/08 06:18:41;;;;;;;6.82;1.00;;;20.70;99.90;;;;;;5073781;28;20058;-76
2022/04/08 06:21:08;;;;;;;5.95;0.80;;;20.70;99.90;;;;;;5073552;28;20043;-76
2022/04/08 06:23:35;;;;;;;7.43;1.20;;;20.60;99.90;;;;;;5072130;28;20026;-77
2022/04/08 06:26:03;;;;;;;8.02;1.50;;;20.60;99.90;;;;;;5072111;28;20029;-74
2022/04/08 06:28:30;;;;;;;6.82;1.00;;;20.60;99.90;;;;;;5072038;28;20028;-76
2022/04/08 06:30:57;;;;;;;7.90;1.17;;;20.60;99.90;;;;;;5073631;28;20020;-75
2022/04/08 06:33:25;;;;;;;8.70;1.20;;;20.50;99.90;;;;;;5071830;28;20364;-74
2022/04/08 06:35:52;;;;;;;7.68;1.55;;;20.50;99.90;;;;;;5071807;28;20088;-75
2022/04/08 06:38:19;;;;;;;9.20;1.23;;;20.30;99.90;;;;;;5073044;28;20069;-75
2022/04/08 06:40:47;;;;;;;6.75;1.58;;;20.20;99.90;;;;;;5073159;28;20533;-75
2022/04/08 06:43:14;;;;;;;5.72;1.00;;;20.10;99.90;;;;;;5072972;28;20496;-75
2022/04/08 06:45:42;;;;;;;7.35;1.08;;;20.00;99.90;;;;;;5071623;28;20020;-75
2022/04/08 06:48:09;;;;;;;10.27;1.35;;;20.00;99.90;;;;;;5071438;28;20032;-75
2022/04/08 06:50:37;;;;;;;6.53;1.30;;;20.00;99.90;;;;;;5071532;28;20587;-75
2022/04/08 06:53:04;;;;;;;8.05;1.58;;;20.00;99.90;;;;;;5071349;28;20056;-75
2022/04/08 06:55:32;;;;;;;7.38;1.42;;;19.90;99.90;;;;;;5072727;28;20099;-75
2022/04/08 06:58:04;;;;;;;8.52;2.40;;;19.90;99.90;;;;;;5072723;28;20029;-75
2022/04/08 07:00:32;;;;;;;6.20;1.23;;;20.00;99.90;;;;;;5071318;28;20024;-74
2022/04/08 07:02:59;;;;;;;11.07;2.10;;;20.00;99.90;;;;;;5071152;28;20021;-76
2022/04/08 07:05:28;;;;;;;7.57;1.70;;;20.00;99.90;;;;;;5070831;28;20046;-76
2022/04/08 07:07:56;;;;;;;6.18;1.45;;;20.00;99.90;;;;;;5072432;28;20540;-74
2022/04/08 07:10:23;;;;;;;9.40;2.15;;;20.00;99.90;;;;;;5071086;28;20393;-74
2022/04/08 07:12:51;;;;;;;8.98;1.55;;;20.00;99.90;;;;;;5070836;28;20044;-73
2022/04/08 07:15:18;;;;;;;7.72;1.40;;;19.80;99.90;;;;;;5072320;28;20410;-74
2022/04/08 07:17:46;;;;;;;10.57;1.60;;;19.80;99.90;;;;;;5070845;28;20376;-75
2022/04/08 07:20:14;;;;;;;11.38;2.17;;;19.80;99.90;;;;;;5072279;28;20090;-73
2022/04/08 07:22:41;;;;;;;9.80;1.35;;;19.70;99.90;;;;;;5071491;28;20017;-74
2022/04/08 07:25:10;;;;;;;11.10;1.60;;;19.70;99.90;;;;;;5070760;28;20024;-73
2022/04/08 07:27:48;;;;;;;8.13;1.40;;;19.70;99.90;;;;;;5070839;28;20469;-74
2022/04/08 07:30:17;;;;;;;7.38;1.58;;;19.70;99.90;;;;;;5070816;28;20031;-73
2022/04/08 07:32:51;;;;;;;10.40;2.15;;;19.70;99.90;;;;;;5072217;28;20453;-73
2022/04/08 07:35:20;;;;;;;10.95;1.65;;;19.70;99.90;;;;;;5070635;28;20074;-74
2022/04/08 07:37:48;;;;;;;7.07;1.48;;;19.60;99.90;;;;;;5070775;28;20023;-75
2022/04/08 07:40:16;;;;;;;10.20;2.10;;;19.60;99.90;;;;;;5070690;28;20119;-74
2022/04/08 07:42:44;;;;;;;11.73;2.28;;;19.60;99.90;;;;;;5072058;28;20074;-74
2022/04/08 07:45:12;;;;;;;14.30;2.42;;;19.50;99.90;;;;;;5071815;28;20473;-73
2022/04/08 07:47:40;;;;;;;18.45;3.08;;;19.50;99.90;;;;;;5071949;28;20036;-74
2022/04/08 07:50:10;;;;;;;17.67;3.03;;;19.60;99.90;;;;;;5070552;28;20024;-73
2022/04/08 07:52:38;;;;;;;18.17;3.42;;;19.70;99.90;;;;;;5070705;28;20017;-74
2022/04/08 07:55:07;;;;;;;11.18;2.22;;;19.70;99.90;;;;;;5070522;28;20066;-73
2022/04/08 07:57:42;;;;;;;15.90;3.20;;;19.70;99.90;;;;;;5070495;28;20122;-74
2022/04/08 08:00:10;;;;;;;15.90;2.25;;;19.70;99.90;;;;;;5070467;28;20017;-75
2022/04/08 08:02:38;;;;;;;10.80;1.85;;;19.70;99.90;;;;;;5071780;28;20016;-74
2022/04/08 08:05:07;;;;;;;14.23;2.33;;;19.70;99.90;;;;;;5070300;28;20408;-75
2022/04/08 08:07:54;;;;;;;8.68;1.60;;;19.80;99.90;;;;;;5071860;28;20512;-73
2022/04/08 08:10:29;;;;;;;17.02;2.42;;;19.80;99.90;;;;;;5071848;28;20024;-73
2022/04/08 08:12:59;;;;;;;11.80;2.08;;;19.80;99.90;;;;;;5071813;28;20109;-73
2022/04/08 08:15:27;;;;;;;11.05;2.45;;;19.80;99.90;;;;;;5071630;28;20107;-74
2022/04/08 08:17:58;;;;;;;11.32;2.10;;;19.80;99.90;;;;;;5070350;28;20029;-74
2022/04/08 08:20:26;;;;;;;16.92;2.47;;;19.80;99.90;;;;;;5071709;28;20020;-75
2022/04/08 08:22:54;;;;;;;11.73;1.60;;;19.80;99.90;;;;;;5071733;28;20115;-75
2022/04/08 08:25:22;;;;;;;11.20;1.73;;;19.80;99.90;;;;;;5071659;28;20035;-75
2022/04/08 08:28:01;;;;;;;10.57;2.15;;;19.80;99.90;;;;;;5070250;28;20433;-74
2022/04/08 08:30:30;;;;;;;12.47;1.77;;;19.80;99.90;;;;;;5070377;28;20017;-76
2022/04/08 08:32:58;;;;;;;14.82;2.50;;;19.80;99.90;;;;;;5070313;28;20457;-75
2022/04/08 08:35:27;;;;;;;12.85;2.38;;;19.90;99.90;;;;;;5073123;28;20025;-75
2022/04/08 08:37:54;;;;;;;12.07;2.00;;;20.00;99.90;;;;;;5075462;28;20016;-76
2022/04/08 08:40:21;;;;;;;11.52;2.53;;;19.80;99.90;;;;;;5075459;28;20485;-75
2022/04/08 08:42:49;;;;;;;10.85;1.98;;;19.60;99.90;;;;;;5075373;28;20023;-75
2022/04/08 08:45:17;;;;;;;9.32;2.08;;;19.40;99.90;;;;;;5075204;28;20070;-75
2022/04/08 08:47:49;;;;;;;12.10;1.88;;;19.30;99.90;;;;;;5075290;28;20024;-75
2022/04/08 08:50:17;;;;;;;17.17;2.72;;;19.20;99.90;;;;;;5075190;28;20466;-74
2022/04/08 08:52:49;;;;;;;16.65;2.70;;;19.20;99.90;;;;;;5075056;28;20027;-74
2022/04/08 08:55:17;;;;;;;15.48;2.83;;;19.20;99.90;;;;;;5074888;28;20477;-74
2022/04/08 08:57:45;;;;;;;19.05;3.55;;;19.30;99.90;;;;;;5073560;28;20025;-74
2022/04/08 09:00:16;;;;;;;21.60;4.05;;;19.30;99.90;;;;;;5074920;28;20028;-74
2022/04/08 09:02:43;;;;;;;;;;;19.30;99.90;;;;;;5075126;28;20029;-75
2022/04/08 09:05:24;;;;;;;16.15;3.17;;;19.40;99.90;;;;;;5073275;28;19916;-75
2022/04/08 09:08:05;;;;;;;22.65;3.40;;;19.40;99.90;;;;;;5073494;28;20029;-74
2022/04/08 09:10:39;;;;;;;15.80;2.40;;;19.40;99.90;;;;;;5074711;28;20048;-74
2022/04/08 09:13:08;;;;;;;13.70;2.88;;;19.40;99.90;;;;;;5074763;28;20020;-74
2022/04/08 09:15:40;;;;;;;13.73;1.70;;;19.40;99.90;;;;;;5074668;28;20040;-74
2022/04/08 09:18:12;;;;;;;16.52;1.95;;;19.50;99.90;;;;;;5073322;28;20036;-75
2022/04/08 09:20:44;;;;;;;15.20;2.17;;;19.60;99.90;;;;;;5073276;28;20024;-74
2022/04/08 09:23:14;;;;;;;11.10;2.10;;;19.60;99.90;;;;;;5074519;28;20012;-75
2022/04/08 09:25:42;;;;;;;15.20;3.10;;;19.70;99.90;;;;;;5073456;28;20028;-75
2022/04/08 09:28:15;;;;;;;15.40;2.72;;;19.70;99.90;;;;;;5074329;28;20401;-75
2022/04/08 09:30:49;;;;;;;17.38;2.30;;;19.60;99.90;;;;;;5073126;28;20032;-75
2022/04/08 09:33:23;;;;;;;18.27;2.53;;;19.50;99.90;;;;;;5074406;28;20435;-73
2022/04/08 09:35:53;;;;;;;15.05;2.35;;;19.40;99.90;;;;;;5074206;28;20116;-74
2022/04/08 09:38:25;;;;;;;18.70;2.67;;;19.30;99.90;;;;;;5072810;28;20024;-75
2022/04/08 09:41:06;;;;;;;13.90;1.75;;;19.30;99.90;;;;;;5072757;28;20024;-74
2022/04/08 09:43:34;;;;;;;15.23;2.53;;;19.40;99.90;;;;;;5072764;28;20024;-74
2022/04/08 09:46:19;;;;;;;11.65;2.63;;;19.40;99.90;;;;;;5073317;28;20477;-75
2022/04/08 09:48:48;;;;;;;14.55;2.63;;;19.50;99.90;;;;;;5072540;28;20119;-74
2022/04/08 09:51:23;;;;;;;11.73;1.63;;;19.50;99.90;;;;;;5073900;28;20473;-74
2022/04/08 09:53:58;;;;;;;12.40;1.85;;;19.50;99.90;;;;;;5073967;28;20020;-74
2022/04/08 09:56:29;;;;;;;11.45;1.60;;;19.50;99.90;;;;;;5072478;28;20069;-74
2022/04/08 09:59:20;;;;;;;16.00;2.15;;;19.60;99.90;;;;;;5072628;28;20483;-74
2022/04/08 10:01:50;;;;;;;14.30;1.88;;;19.70;99.90;;;;;;5072480;28;20052;-74
2022/04/08 10:04:20;;;;;;;13.68;2.08;;;19.80;99.90;;;;;;5072116;28;20451;-75
2022/04/08 10:06:48;;;;;;;15.67;2.20;;;19.80;99.90;;;;;;5073787;28;20401;-74
2022/04/08 10:09:19;;;;;;;10.65;1.95;;;19.90;99.90;;;;;;5072241;28;20319;-74
2022/04/08 10:12:06;;;;;;;12.20;2.03;;;19.80;99.90;;;;;;5073666;28;20028;-75
2022/04/08 10:14:54;;;;;;;8.63;1.83;;;19.80;99.90;;;;;;5071808;28;20035;-74
2022/04/08 10:17:22;;;;;;;10.38;1.70;;;19.80;99.90;;;;;;5073702;28;20481;-76
2022/04/08 10:19:50;;;;;;;13.70;2.40;;;19.80;99.90;;;;;;5073507;28;20017;-76
2022/04/08 10:22:19;;;;;;;11.25;1.73;;;19.80;99.90;;;;;;5073502;28;20025;-75
2022/04/08 10:24:54;;;;;;;14.25;2.28;;;19.90;99.90;;;;;;5073417;28;20020;-76
2022/04/08 10:27:34;;;;;;;16.95;2.75;;;19.90;99.90;;;;;;5072090;28;20495;-75
2022/04/08 10:30:11;;;;;;;12.00;2.17;;;19.80;99.90;;;;;;5073342;28;20016;-75
2022/04/08 10:32:39;;;;;;;10.93;1.70;;;19.80;99.90;;;;;;5073454;28;20036;-75
2022/04/08 10:35:20;;;;;;;10.55;2.00;;;19.80;99.90;;;;;;5071953;28;20048;-74
2022/04/08 10:37:57;;;;;;;;;;;19.80;99.90;;;;;;5072356;28;20060;-74
2022/04/08 10:40:34;;;;;;;21.17;2.50;;;19.80;99.90;;;;;;5073242;28;19967;-75
2022/04/08 10:43:07;;;;;;;13.82;2.10;;;19.80;99.90;;;;;;5073144;28;20019;-75
2022/04/08 10:45:35;;;;;;;15.25;2.00;;;19.80;99.90;;;;;;5072908;28;20082;-75
2022/04/08 10:48:11;;;;;;;10.25;1.92;;;19.80;99.90;;;;;;5071533;28;20031;-74
2022/04/08 10:50:40;;;;;;;11.45;1.50;;;19.80;99.90;;;;;;5071504;28;20052;-75
2022/04/08 10:53:13;;;;;;;14.60;2.53;;;19.80;99.90;;;;;;5072828;28;20025;-75
2022/04/08 10:56:18;;;;;;;9.50;1.60;;;19.80;99.90;;;;;;5071496;28;20051;-74
2022/04/08 10:58:48;;;;;;;11.27;2.13;;;19.90;99.90;;;;;;5033768;28;20484;-74
2022/04/08 11:01:17;;;;;;;14.25;1.85;;;19.90;99.90;;;;;;5050451;28;20021;-75
2022/04/08 11:03:53;;;;;;;8.63;1.70;;;19.90;99.90;;;;;;5061561;28;20060;-74
2022/04/08 11:06:21;;;;;;;13.27;2.15;;;19.80;99.90;;;;;;5072692;28;20565;-74
2022/04/08 11:08:49;;;;;;;16.55;2.50;;;19.80;99.90;;;;;;5072636;28;20393;-74
2022/04/08 11:11:16;;;;;;;9.90;1.63;;;19.70;99.90;;;;;;5071106;28;20440;-74
2022/04/08 11:13:43;;;;;;;11.77;2.30;;;19.70;99.90;;;;;;5072508;28;20268;-74
2022/04/08 11:16:11;;;;;;;13.95;2.80;;;19.70;99.90;;;;;;5071002;28;20373;-74
2022/04/08 11:18:48;;;;;;;9.38;1.80;;;19.70;99.90;;;;;;5072340;28;20529;-74
2022/04/08 11:21:19;;;;;;;15.43;2.75;;;19.60;99.90;;;;;;5072323;28;20028;-74
2022/04/08 11:24:03;;;;;;;10.93;2.00;;;19.60;99.90;;;;;;5072273;28;20427;-74
2022/04/08 11:26:32;;;;;;;13.40;2.42;;;19.60;99.90;;;;;;5072443;28;20398;-74
2022/04/08 11:29:15;;;;;;;13.23;2.22;;;19.60;99.90;;;;;;5070930;28;20481;-74
2022/04/08 11:31:44;;;;;;;16.30;2.83;;;19.60;99.90;;;;;;5070923;28;20028;-74
2022/04/08 11:34:13;;;;;;;14.48;2.08;;;19.60;99.90;;;;;;5070882;28;20544;-73
2022/04/08 11:36:41;;;;;;;16.27;2.10;;;19.50;99.90;;;;;;5072176;28;20080;-74
2022/04/08 11:39:09;;;;;;;9.98;1.73;;;19.50;99.90;;;;;;5070845;28;20503;-73
2022/04/08 11:41:38;;;;;;;8.27;1.70;;;19.50;99.90;;;;;;5072195;28;20086;-74
2022/04/08 11:44:08;;;;;;;12.82;2.92;;;19.50;99.90;;;;;;5072110;28;20029;-73
2022/04/08 11:46:35;;;;;;;15.60;2.53;;;19.50;99.90;;;;;;5070817;28;20036;-73
2022/04/08 11:49:04;;;;;;;12.80;2.25;;;19.50;99.90;;;;;;5070838;28;20098;-75
2022/04/08 11:51:31;;;;;;;13.07;2.30;;;19.50;99.90;;;;;;5070690;28;20077;-74
2022/04/08 11:54:02;;;;;;;10.82;2.08;;;19.50;99.90;;;;;;5072108;28;20477;-73
2022/04/08 11:56:31;;;;;;;14.10;2.17;;;19.40;99.90;;;;;;5070641;28;20032;-76
2022/04/08 11:59:04;;;;;;;12.93;2.60;;;19.40;99.90;;;;;;5072027;28;20024;-73
2022/04/08 12:01:39;;;;;;;11.50;2.55;;;19.30;99.90;;;;;;5070505;28;20095;-74
2022/04/08 12:04:12;;;;;;;15.05;2.53;;;19.30;99.90;;;;;;5071731;28;20047;-73
2022/04/08 12:06:45;;;;;;;10.18;2.03;;;19.30;99.90;;;;;;5071971;28;20025;-73
2022/04/08 12:09:14;;;;;;;11.27;1.80;;;19.30;99.90;;;;;;5072980;28;20488;-74
2022/04/08 12:11:44;;;;;;;12.15;2.38;;;19.30;99.90;;;;;;5076078;28;20039;-74
2022/04/08 12:14:12;;;;;;;12.68;1.92;;;19.30;99.90;;;;;;5074658;28;20028;-73
2022/04/08 12:16:41;;;;;;;13.45;2.85;;;19.40;99.90;;;;;;5075905;28;20100;-75
2022/04/08 12:19:09;;;;;;;12.82;2.45;;;19.30;99.90;;;;;;5075950;28;20082;-75
2022/04/08 12:21:42;;;;;;;15.63;2.42;;;19.30;99.90;;;;;;5074433;28;20039;-75
2022/04/08 12:24:10;;;;;;;14.77;3.22;;;19.30;99.90;;;;;;5075803;28;20021;-75
2022/04/08 12:26:39;;;;;;;12.75;2.42;;;19.30;99.90;;;;;;5075722;28;20024;-74
2022/04/08 12:29:16;;;;;;;20.17;3.13;;;19.30;99.90;;;;;;5075653;28;20028;-74
2022/04/08 12:31:54;;;;;;;8.43;1.92;;;19.50;99.90;;;;;;5074281;28;20054;-74
2022/04/08 12:34:22;;;;;;;10.98;1.88;;;19.50;99.90;;;;;;5074388;28;20032;-74
2022/04/08 12:36:50;;;;;;;13.30;2.45;;;19.50;99.90;;;;;;5075402;28;20025;-74
2022/04/08 12:39:18;;;;;;;10.73;2.00;;;19.50;99.90;;;;;;5075459;28;20021;-74
2022/04/08 12:41:47;;;;;;;13.77;1.77;;;19.50;99.90;;;;;;5074146;28;20464;-74
2022/04/08 12:44:15;;;;;;;15.95;2.28;;;19.60;99.90;;;;;;5074073;28;20020;-75
2022/04/08 12:46:43;;;;;;;17.80;2.85;;;19.50;99.90;;;;;;5075392;28;20025;-75
2022/04/08 12:49:10;;;;;;;13.30;1.88;;;19.50;99.90;;;;;;5073916;28;20021;-74
2022/04/08 12:51:38;;;;;;;11.93;1.73;;;19.60;99.90;;;;;;5075238;28;20032;-75
2022/04/08 12:54:05;;;;;;;13.15;2.33;;;19.50;99.90;;;;;;5075308;28;20028;-75